Time;durP1;ratioP1;P1;durP2;ratioP2;P2;SDS_P1;SDS_P2;PMS_P1;PMS_P2;Temp;Humidity;BMP_temperature;BMP_pressure;BME280_temperature;BME280_humidity;BME280_pressure;Samples;Min_cycle;Max_cycle;Signal;HPM_P1;HPM_P2
2022/08/16 00:00:35;;;;;;;18.88;7.93;;;;;;;18.56;82.24;100401.34;5074931;28;20013;-74
2022/08/16 00:03:02;;;;;;;20.50;9.32;;;;;;;18.52;82.13;100400.84;5056511;28;20495;-74
2022/08/16 00:05:28;;;;;;;19.50;7.95;;;;;;;18.49;82.39;100398.50;5057023;28;20029;-74
2022/08/16 00:07:54;;;;;;;19.55;8.63;;;;;;;18.46;83.05;100396.13;5057185;28;20028;-74
2022/08/16 00:10:22;;;;;;;19.33;9.10;;;;;;;18.41;82.94;100395.78;5058080;28;20040;-74
2022/08/16 00:12:48;;;;;;;19.20;8.40;;;;;;;18.39;83.75;100389.69;5058120;28;20536;-74
2022/08/16 00:15:22;;;;;;;20.17;8.70;;;;;;;18.38;83.16;100393.41;5058087;28;20068;-74
2022/08/16 00:17:47;;;;;;;20.60;8.68;;;;;;;18.37;83.13;100393.59;5056592;28;20442;-74
2022/08/16 00:20:13;;;;;;;19.88;9.05;;;;;;;18.36;83.72;100400.06;5058089;28;20017;-74
2022/08/16 00:22:41;;;;;;;20.40;9.48;;;;;;;18.36;83.24;100403.66;5058078;28;20082;-74
2022/08/16 00:25:10;;;;;;;19.80;9.45;;;;;;;18.34;83.49;100403.78;5058915;28;20036;-74
2022/08/16 00:27:35;;;;;;;23.65;8.95;;;;;;;18.37;82.91;100416.19;5077043;28;20522;-74
2022/08/16 00:30:02;;;;;;;21.30;9.23;;;;;;;18.39;83.38;100407.88;5077690;28;20024;-74
2022/08/16 00:32:27;;;;;;;21.33;9.85;;;;;;;18.38;82.81;100412.47;5077767;28;20056;-74
2022/08/16 00:34:52;;;;;;;19.67;9.10;;;;;;;18.38;83.76;100415.19;5078492;28;20025;-74
2022/08/16 00:37:20;;;;;;;22.05;10.32;;;;;;;18.40;82.66;100420.44;5077883;28;20028;-74
2022/08/16 00:39:46;;;;;;;22.92;10.38;;;;;;;18.40;82.88;100426.72;5077611;28;20027;-74
2022/08/16 00:42:12;;;;;;;23.08;11.10;;;;;;;18.39;83.81;100419.63;5076732;28;20611;-74
2022/08/16 00:44:39;;;;;;;20.88;10.27;;;;;;;18.39;83.68;100424.19;5077829;28;20032;-74
2022/08/16 00:47:11;;;;;;;20.95;9.35;;;;;;;18.38;83.69;100420.63;5077859;28;20032;-74
2022/08/16 00:49:36;;;;;;;19.63;10.57;;;;;;;18.37;83.87;100415.38;5077416;28;20465;-74
2022/08/16 00:52:02;;;;;;;21.92;10.85;;;;;;;18.36;83.93;100425.41;5077693;28;20035;-74
2022/08/16 00:54:30;;;;;;;21.30;10.20;;;;;;;18.34;83.74;100430.16;5077574;28;20024;-74
2022/08/16 00:56:58;;;;;;;20.73;9.77;;;;;;;18.31;83.64;100423.19;5077461;28;20084;-74
2022/08/16 00:59:25;;;;;;;24.27;10.73;;;;;;;18.31;83.25;100422.34;5077132;28;20021;-74
2022/08/16 01:01:51;;;;;;;23.95;10.82;;;;;;;18.30;83.19;100428.78;5076394;28;20028;-73
2022/08/16 01:04:20;;;;;;;21.98;11.18;;;;;;;18.29;83.92;100424.41;5075208;28;20017;-73
2022/08/16 01:06:45;;;;;;;22.83;10.85;;;;;;;18.27;83.15;100427.31;5073912;28;20028;-73
2022/08/16 01:09:11;;;;;;;23.50;11.15;;;;;;;18.26;83.34;100430.16;5075080;28;20024;-73
2022/08/16 01:11:37;;;;;;;22.70;11.15;;;;;;;18.27;83.98;100426.44;5073610;28;20025;-73
2022/08/16 01:14:18;;;;;;;23.45;10.77;;;;;;;18.27;83.80;100423.72;5075008;28;20107;-73
2022/08/16 01:16:46;;;;;;;21.50;9.75;;;;;;;18.24;83.85;100424.06;5054783;28;20082;-73
2022/08/16 01:19:25;;;;;;;22.15;11.73;;;;;;;18.24;84.10;100429.50;5054746;28;20063;-73
2022/08/16 01:22:09;;;;;;;21.90;11.35;;;;;;;18.23;83.47;100423.22;5053463;28;20028;-73
2022/08/16 01:24:41;;;;;;;22.05;11.57;;;;;;;18.23;84.31;100420.50;5053278;28;20041;-73
2022/08/16 01:27:31;;;;;;;24.33;12.25;;;;;;;18.26;83.53;100420.16;5054788;28;20385;-73
2022/08/16 01:30:11;;;;;;;22.13;11.32;;;;;;;18.26;84.26;100427.44;5045602;28;20086;-73
2022/08/16 01:32:41;;;;;;;24.45;12.07;;;;;;;18.27;84.67;100429.16;5071135;28;20061;-73
2022/08/16 01:35:26;;;;;;;;;;;;;;;18.33;82.38;100431.16;5073698;28;20043;-73
2022/08/16 01:37:55;;;;;;;25.92;12.70;;;;;;;18.27;84.78;100419.13;5067393;28;19982;-73
2022/08/16 01:40:25;;;;;;;26.65;14.20;;;;;;;18.27;84.80;100423.72;5074432;28;20029;-73
2022/08/16 01:42:51;;;;;;;23.23;12.88;;;;;;;18.26;84.72;100425.59;5074619;28;20116;-73
2022/08/16 01:45:18;;;;;;;22.83;12.50;;;;;;;18.24;84.54;100421.34;5074554;28;20060;-73
2022/08/16 01:47:46;;;;;;;26.08;14.02;;;;;;;18.25;84.28;100418.44;5072967;28;20016;-73
2022/08/16 01:50:12;;;;;;;24.00;13.30;;;;;;;18.26;84.22;100420.16;5072955;28;20035;-73
2022/08/16 01:52:40;;;;;;;24.00;12.70;;;;;;;18.26;84.45;100424.72;5074174;28;20020;-73
2022/08/16 01:55:06;;;;;;;23.65;13.80;;;;;;;18.27;84.48;100415.53;5074231;28;20032;-73
2022/08/16 01:57:32;;;;;;;23.70;13.80;;;;;;;18.26;84.57;100422.00;5074022;28;20021;-73
2022/08/16 01:59:57;;;;;;;25.90;13.38;;;;;;;18.24;84.58;100424.06;5072615;28;20024;-73
2022/08/16 02:02:23;;;;;;;22.58;13.18;;;;;;;18.23;84.31;100425.06;5072645;28;20039;-73
2022/08/16 02:04:50;;;;;;;23.92;12.55;;;;;;;18.22;84.30;100428.84;5074002;28;20031;-73
2022/08/16 02:07:17;;;;;;;23.50;12.43;;;;;;;18.20;84.05;100428.13;5074151;28;20073;-73
2022/08/16 02:09:42;;;;;;;26.60;13.55;;;;;;;18.21;84.60;100427.13;5073950;28;20035;-73
2022/08/16 02:12:08;;;;;;;25.83;14.52;;;;;;;18.16;84.08;100430.38;5072689;28;20476;-73
2022/08/16 02:14:34;;;;;;;24.92;14.00;;;;;;;18.19;84.24;100431.91;5073944;28;20104;-73
2022/08/16 02:17:02;;;;;;;27.65;14.50;;;;;;;18.20;83.87;100431.72;5072413;28;20025;-73
2022/08/16 02:19:30;;;;;;;23.85;13.98;;;;;;;18.22;83.78;100434.28;5073445;28;20070;-73
2022/08/16 02:21:58;;;;;;;26.67;13.75;;;;;;;18.21;83.61;100429.84;5072466;28;20400;-73
2022/08/16 02:24:23;;;;;;;25.35;14.25;;;;;;;18.20;83.91;100426.28;5071680;28;20383;-73
2022/08/16 02:26:50;;;;;;;23.98;12.75;;;;;;;18.20;84.20;100430.84;5071972;28;20032;-73
2022/08/16 02:29:17;;;;;;;26.95;14.10;;;;;;;18.17;84.01;100440.25;5072223;28;20020;-73
2022/08/16 02:31:43;;;;;;;25.85;14.02;;;;;;;18.15;84.13;100436.81;5071564;28;20068;-73
2022/08/16 02:34:08;;;;;;;25.75;15.05;;;;;;;18.14;84.06;100426.97;5071979;28;20028;-73
2022/08/16 02:36:33;;;;;;;24.50;14.32;;;;;;;18.08;84.17;100428.53;5072254;28;20040;-73
2022/08/16 02:38:59;;;;;;;26.23;13.52;;;;;;;18.07;84.35;100424.09;5073398;28;20017;-73
2022/08/16 02:41:25;;;;;;;24.55;13.75;;;;;;;18.05;83.94;100428.00;5073307;28;20024;-73
2022/08/16 02:43:50;;;;;;;27.02;14.30;;;;;;;18.04;84.84;100418.13;5072042;28;20051;-73
2022/08/16 02:46:16;;;;;;;23.80;13.70;;;;;;;18.02;84.17;100425.63;5072160;28;20495;-73
2022/08/16 02:48:41;;;;;;;25.92;15.10;;;;;;;17.98;84.63;100423.25;5072375;28;20047;-72
2022/08/16 02:51:08;;;;;;;27.13;15.52;;;;;;;17.95;84.49;100420.00;5072047;28;20525;-72
2022/08/16 02:53:35;;;;;;;25.05;15.35;;;;;;;17.94;84.65;100426.50;5071932;28;20380;-72
2022/08/16 02:56:01;;;;;;;26.25;14.82;;;;;;;17.92;84.45;100412.19;5071629;28;20134;-72
2022/08/16 02:58:27;;;;;;;26.15;15.77;;;;;;;17.91;84.88;100419.53;5071565;28;20087;-72
2022/08/16 03:00:54;;;;;;;25.70;14.48;;;;;;;17.88;84.69;100410.81;5072598;28;20031;-72
2022/08/16 03:03:20;;;;;;;25.75;13.02;;;;;;;17.90;84.74;100409.66;5073077;28;20099;-72
2022/08/16 03:05:46;;;;;;;25.98;15.77;;;;;;;17.91;84.87;100410.53;5073347;28;20028;-72
2022/08/16 03:08:11;;;;;;;23.77;14.25;;;;;;;17.89;85.00;100413.38;5071776;28;20036;-72
2022/08/16 03:10:37;;;;;;;26.83;15.20;;;;;;;17.86;85.01;100407.41;5073271;28;20485;-73
2022/08/16 03:13:03;;;;;;;25.02;15.02;;;;;;;17.81;85.27;100406.06;5073013;28;20028;-73
2022/08/16 03:15:28;;;;;;;26.50;14.20;;;;;;;17.80;85.39;100408.94;5072778;28;20028;-73
2022/08/16 03:17:55;;;;;;;25.40;15.02;;;;;;;17.78;85.38;100403.69;5073130;28;20020;-73
2022/08/16 03:20:20;;;;;;;25.65;15.55;;;;;;;17.76;85.46;100405.75;5071625;28;20051;-73
2022/08/16 03:22:46;;;;;;;24.70;14.82;;;;;;;17.75;85.35;100404.03;5073046;28;20020;-73
2022/08/16 03:25:14;;;;;;;24.40;14.82;;;;;;;17.72;85.89;100407.09;5071602;28;20444;-73
2022/08/16 03:27:40;;;;;;;25.92;14.80;;;;;;;17.70;85.17;100406.44;5072848;28;20078;-73
2022/08/16 03:30:18;;;;;;;24.77;14.90;;;;;;;17.67;85.78;100408.63;5073197;28;20465;-73
2022/08/16 03:32:45;;;;;;;24.90;15.13;;;;;;;17.62;86.00;100409.13;5073072;28;20120;-73
2022/08/16 03:35:11;;;;;;;29.77;14.65;;;;;;;17.59;86.00;100410.31;5072987;28;20025;-73
2022/08/16 03:37:36;;;;;;;24.23;14.25;;;;;;;17.61;86.31;100415.56;5074415;28;20035;-73
2022/08/16 03:40:03;;;;;;;24.60;14.95;;;;;;;17.58;86.39;100416.75;5076944;28;20029;-73
2022/08/16 03:42:29;;;;;;;24.73;13.70;;;;;;;17.58;86.58;100419.47;5077103;28;20491;-73
2022/08/16 03:44:54;;;;;;;26.48;14.60;;;;;;;17.57;86.58;100422.38;5075526;28;20017;-73
2022/08/16 03:47:19;;;;;;;26.67;15.73;;;;;;;17.51;86.47;100426.63;5076039;28;20074;-73
2022/08/16 03:49:46;;;;;;;26.75;15.38;;;;;;;17.47;86.53;100428.81;5075553;28;20028;-73
2022/08/16 03:52:12;;;;;;;26.10;14.57;;;;;;;17.44;86.51;100426.44;5076779;28;20024;-73
2022/08/16 03:54:37;;;;;;;23.25;13.38;;;;;;;17.39;86.59;100434.22;5076743;28;20036;-73
2022/08/16 03:57:03;;;;;;;26.45;15.05;;;;;;;17.38;86.84;100431.69;5075573;28;20383;-73
2022/08/16 03:59:30;;;;;;;26.13;16.83;;;;;;;17.38;87.17;100437.97;5075363;28;20488;-73
2022/08/16 04:01:56;;;;;;;25.25;16.50;;;;;;;17.40;87.38;100435.09;5075314;28;20024;-73
2022/08/16 04:04:21;;;;;;;25.48;16.52;;;;;;;17.44;87.58;100441.91;5076872;28;20020;-73
2022/08/16 04:06:47;;;;;;;28.13;17.55;;;;;;;17.44;87.55;100441.91;5076553;28;20468;-73
2022/08/16 04:09:12;;;;;;;27.20;17.42;;;;;;;17.47;87.73;100442.41;5075335;28;20020;-73
2022/08/16 04:11:37;;;;;;;26.42;16.60;;;;;;;17.50;87.48;100440.34;5076549;28;20434;-73
2022/08/16 04:14:03;;;;;;;26.75;17.40;;;;;;;17.50;87.70;100440.34;5076428;28;20210;-73
2022/08/16 04:16:31;;;;;;;27.42;17.10;;;;;;;17.50;87.48;100443.94;5076437;28;20032;-73
2022/08/16 04:18:56;;;;;;;28.95;17.05;;;;;;;17.51;87.37;100437.50;5075086;28;20051;-73
2022/08/16 04:21:21;;;;;;;28.05;17.08;;;;;;;17.51;87.63;100448.38;5075149;28;20028;-73
2022/08/16 04:23:47;;;;;;;28.05;17.17;;;;;;;17.51;87.82;100445.66;5076564;28;20396;-73
2022/08/16 04:26:12;;;;;;;26.90;16.80;;;;;;;17.51;87.68;100451.09;5076119;28;20040;-73
2022/08/16 04:28:37;;;;;;;26.17;17.20;;;;;;;17.54;87.90;100447.16;5076436;28;20089;-73
2022/08/16 04:31:03;;;;;;;27.73;16.92;;;;;;;17.54;87.83;100445.31;5075819;28;20045;-72
2022/08/16 04:33:28;;;;;;;26.98;16.40;;;;;;;17.56;87.71;100445.13;5073551;28;20063;-72
2022/08/16 04:35:55;;;;;;;30.92;18.13;;;;;;;17.53;87.77;100450.91;5075054;28;20024;-72
2022/08/16 04:38:20;;;;;;;28.05;17.77;;;;;;;17.56;87.78;100453.28;5073618;28;20023;-72
2022/08/16 04:40:49;;;;;;;29.80;18.08;;;;;;;17.57;88.05;100452.25;5073524;28;20461;-72
2022/08/16 04:43:14;;;;;;;31.65;17.55;;;;;;;17.57;88.15;100452.25;5074927;28;20024;-72
2022/08/16 04:45:41;;;;;;;28.10;18.30;;;;;;;17.56;88.07;100456.00;5073432;28;20488;-72
2022/08/16 04:48:07;;;;;;;30.60;19.02;;;;;;;17.56;87.96;100456.00;5073181;28;20090;-72
2022/08/16 04:50:33;;;;;;;28.58;18.20;;;;;;;17.55;88.18;100460.56;5074917;28;20012;-72
2022/08/16 04:52:58;;;;;;;28.20;18.15;;;;;;;17.54;88.48;100458.03;5073426;28;20119;-72
2022/08/16 04:55:26;;;;;;;27.08;18.65;;;;;;;17.52;88.39;100460.91;5074589;28;20027;-72
2022/08/16 04:57:53;;;;;;;27.73;18.67;;;;;;;17.51;88.56;100458.38;5073209;28;20052;-72
2022/08/16 05:00:23;;;;;;;29.08;18.92;;;;;;;17.51;88.80;100463.78;5073043;28;20024;-72
2022/08/16 05:02:51;;;;;;;27.02;17.73;;;;;;;17.49;88.88;100463.13;5074583;28;20037;-72
2022/08/16 05:05:16;;;;;;;29.02;18.00;;;;;;;17.47;88.98;100466.00;5073180;28;20017;-72
2022/08/16 05:07:42;;;;;;;34.20;19.15;;;;;;;17.49;89.24;100463.97;5073070;28;20447;-72
2022/08/16 05:10:08;;;;;;;27.27;18.45;;;;;;;17.51;89.48;100469.22;5073176;28;20024;-73
2022/08/16 05:12:35;;;;;;;32.25;19.23;;;;;;;17.52;89.15;100473.66;5073394;28;20078;-73
2022/08/16 05:15:00;;;;;;;29.35;19.33;;;;;;;17.56;89.10;100477.75;5074172;28;20031;-73
2022/08/16 05:17:26;;;;;;;30.15;18.40;;;;;;;17.58;88.75;100475.69;5074346;28;20032;-73
2022/08/16 05:19:51;;;;;;;30.42;19.25;;;;;;;17.60;88.95;100470.94;5072662;28;20385;-72
2022/08/16 05:22:18;;;;;;;29.92;19.48;;;;;;;17.61;88.55;100469.94;5072685;28;20016;-72
2022/08/16 05:24:43;;;;;;;29.15;19.80;;;;;;;17.64;88.90;100472.31;5074140;28;20067;-72
2022/08/16 05:27:08;;;;;;;30.38;19.63;;;;;;;17.67;88.23;100476.56;5072755;28;20024;-72
2022/08/16 05:29:34;;;;;;;35.40;20.17;;;;;;;17.68;88.04;100489.97;5072639;28;20021;-72
2022/08/16 05:32:00;;;;;;;27.98;17.63;;;;;;;17.71;88.56;100481.50;5037108;28;1058799;-72
2022/08/16 05:34:25;;;;;;;28.30;18.40;;;;;;;17.72;88.12;100483.19;5074944;28;20025;-72
2022/08/16 05:36:54;;;;;;;32.70;19.27;;;;;;;17.73;88.25;100487.63;5073768;28;20035;-72
2022/08/16 05:39:19;;;;;;;34.20;18.92;;;;;;;17.75;89.00;100488.28;5073590;28;20081;-72
2022/08/16 05:41:44;;;;;;;29.67;19.45;;;;;;;17.76;88.36;100491.84;5074630;28;20099;-72
2022/08/16 05:44:12;;;;;;;29.92;18.63;;;;;;;17.79;88.04;100496.97;5074707;28;20020;-72
2022/08/16 05:46:37;;;;;;;30.42;18.60;;;;;;;17.80;87.92;100495.94;5074562;28;20028;-72
2022/08/16 05:49:03;;;;;;;37.72;18.88;;;;;;;17.82;88.56;100497.47;5073310;28;20020;-72
2022/08/16 05:51:28;;;;;;;31.42;20.40;;;;;;;17.84;87.72;100499.19;5074292;28;20080;-72
2022/08/16 05:53:53;;;;;;;31.15;19.92;;;;;;;17.86;88.16;100497.13;5074533;28;20107;-72
2022/08/16 05:56:19;;;;;;;32.83;19.48;;;;;;;17.90;87.08;100496.66;5073402;28;20499;-72
2022/08/16 05:58:44;;;;;;;28.73;18.80;;;;;;;17.94;87.38;100497.19;5072774;28;20028;-72
2022/08/16 06:01:09;;;;;;;29.70;18.98;;;;;;;17.98;87.38;100499.38;5073750;28;20039;-72
2022/08/16 06:03:36;;;;;;;29.77;19.42;;;;;;;18.02;87.31;100510.75;5074109;28;20031;-72
2022/08/16 06:06:02;;;;;;;29.30;18.75;;;;;;;18.07;86.39;100508.41;5073030;28;20024;-72
2022/08/16 06:08:27;;;;;;;26.58;17.75;;;;;;;18.12;86.66;100518.75;5073866;28;20031;-73
2022/08/16 06:10:53;;;;;;;31.27;20.10;;;;;;;18.16;86.51;100515.53;5073990;28;20099;-73
2022/08/16 06:13:18;;;;;;;30.17;19.92;;;;;;;18.22;86.05;100518.59;5072807;28;20025;-73
2022/08/16 06:15:44;;;;;;;31.02;19.80;;;;;;;18.28;85.65;100515.19;5074097;28;20059;-73
2022/08/16 06:18:09;;;;;;;31.17;20.42;;;;;;;18.32;85.47;100519.28;5072728;28;20507;-73
2022/08/16 06:20:34;;;;;;;29.98;19.40;;;;;;;18.38;85.27;100520.47;5072546;28;20093;-73
2022/08/16 06:23:00;;;;;;;30.70;19.92;;;;;;;18.44;85.33;100523.31;5074079;28;20027;-73
2022/08/16 06:25:26;;;;;;;33.38;20.27;;;;;;;18.50;85.49;100519.91;5072747;28;20064;-73
2022/08/16 06:27:52;;;;;;;29.55;18.88;;;;;;;18.56;84.30;100520.25;5074312;28;20020;-73
2022/08/16 06:30:18;;;;;;;33.85;18.70;;;;;;;18.61;83.63;100523.28;5072341;28;20123;-73
2022/08/16 06:32:44;;;;;;;32.20;18.83;;;;;;;18.66;84.42;100523.63;5073929;28;20052;-73
2022/08/16 06:35:10;;;;;;;28.88;19.80;;;;;;;18.73;83.70;100529.22;5074005;28;20024;-73
2022/08/16 06:37:36;;;;;;;28.20;18.73;;;;;;;18.80;83.50;100527.50;5074048;28;20377;-73
2022/08/16 06:40:02;;;;;;;27.95;18.88;;;;;;;18.85;82.93;100528.69;5073689;28;20031;-73
2022/08/16 06:42:27;;;;;;;29.92;18.23;;;;;;;18.90;82.44;100525.47;5072879;28;20429;-73
2022/08/16 06:44:52;;;;;;;27.73;18.60;;;;;;;18.96;81.71;100515.75;5072287;28;20083;-73
2022/08/16 06:47:18;;;;;;;28.65;18.50;;;;;;;19.03;82.20;100524.91;5073953;28;20369;-73
2022/08/16 06:49:43;;;;;;;29.98;19.05;;;;;;;19.07;81.18;100522.69;5073473;28;20020;-73
2022/08/16 06:52:09;;;;;;;28.88;19.35;;;;;;;19.14;81.64;100535.44;5073584;28;20039;-73
2022/08/16 06:54:35;;;;;;;27.00;18.42;;;;;;;19.21;80.98;100541.03;5073771;28;20381;-73
2022/08/16 06:57:00;;;;;;;29.27;19.55;;;;;;;19.27;80.55;100536.72;5073455;28;20029;-73
2022/08/16 06:59:26;;;;;;;30.27;20.23;;;;;;;19.32;80.30;100534.34;5073754;28;20438;-73
2022/08/16 07:01:51;;;;;;;29.23;20.50;;;;;;;19.35;79.96;100540.25;5072060;28;20088;-73
2022/08/16 07:04:17;;;;;;;29.48;19.90;;;;;;;19.39;80.81;100536.16;5073255;28;20079;-73
2022/08/16 07:06:42;;;;;;;29.70;19.58;;;;;;;19.44;80.01;100541.06;5073332;28;20067;-73
2022/08/16 07:09:09;;;;;;;29.70;19.67;;;;;;;19.50;79.64;100534.94;5073320;28;20023;-73
2022/08/16 07:11:34;;;;;;;30.00;20.52;;;;;;;19.55;79.97;100535.22;5072216;28;20476;-73
2022/08/16 07:14:00;;;;;;;28.17;18.58;;;;;;;19.62;79.10;100548.13;5072120;28;20028;-73
2022/08/16 07:16:25;;;;;;;28.58;18.40;;;;;;;19.66;79.02;100544.03;5066785;28;20028;-73
2022/08/16 07:18:51;;;;;;;29.92;18.30;;;;;;;19.72;79.24;100559.66;5072345;28;20024;-73
2022/08/16 07:21:17;;;;;;;29.70;19.80;;;;;;;19.77;79.21;100559.16;5073085;28;20021;-73
2022/08/16 07:23:45;;;;;;;27.65;18.58;;;;;;;19.82;79.16;100556.75;5071541;28;20790;-73
2022/08/16 07:26:17;;;;;;;32.22;20.33;;;;;;;19.88;78.80;100556.88;5072243;28;20496;-73
2022/08/16 07:28:42;;;;;;;28.63;19.13;;;;;;;19.93;78.34;100558.19;5071610;28;20031;-73
2022/08/16 07:31:08;;;;;;;28.23;18.80;;;;;;;19.99;78.76;100552.88;5072515;28;20062;-73
2022/08/16 07:33:36;;;;;;;29.55;20.08;;;;;;;20.03;77.63;100564.25;5072759;28;20037;-73
2022/08/16 07:36:03;;;;;;;27.83;17.80;;;;;;;20.10;77.83;100558.94;5072894;28;20025;-73
2022/08/16 07:38:28;;;;;;;30.80;19.67;;;;;;;20.13;77.45;100567.59;5071047;28;20028;-73
2022/08/16 07:40:55;;;;;;;28.80;19.73;;;;;;;20.19;77.75;100566.00;5071105;28;20498;-73
2022/08/16 07:43:22;;;;;;;31.60;17.95;;;;;;;20.25;78.51;100563.41;5072626;28;20051;-73
2022/08/16 07:45:48;;;;;;;28.17;18.00;;;;;;;20.33;78.74;100575.31;5071432;28;20518;-73
2022/08/16 07:48:13;;;;;;;29.38;18.08;;;;;;;20.38;78.04;100572.84;5071364;28;20116;-73
2022/08/16 07:50:40;;;;;;;28.45;18.30;;;;;;;20.42;76.86;100569.59;5071100;28;20109;-73
2022/08/16 07:53:06;;;;;;;27.13;17.65;;;;;;;20.51;77.51;100578.53;5071292;28;20062;-73
2022/08/16 07:55:31;;;;;;;28.20;17.92;;;;;;;20.55;76.38;100576.28;5071346;28;20422;-73
2022/08/16 07:57:56;;;;;;;27.80;17.42;;;;;;;20.59;74.45;100580.34;5070628;28;20099;-73
2022/08/16 08:00:22;;;;;;;28.60;17.13;;;;;;;20.69;75.44;100577.38;5071058;28;20024;-73
2022/08/16 08:02:47;;;;;;;25.58;16.55;;;;;;;20.72;74.81;100575.13;5070976;28;20472;-73
2022/08/16 08:05:13;;;;;;;26.38;17.45;;;;;;;20.76;71.92;100583.78;5072716;28;20099;-73
2022/08/16 08:07:38;;;;;;;26.30;15.93;;;;;;;20.81;73.61;100578.63;5071209;28;20542;-73
2022/08/16 08:10:05;;;;;;;25.13;16.70;;;;;;;20.87;72.54;100585.25;5072549;28;20016;-73
2022/08/16 08:12:30;;;;;;;27.27;17.38;;;;;;;20.94;73.84;100588.91;5072399;28;20028;-73
2022/08/16 08:14:56;;;;;;;28.17;17.17;;;;;;;20.99;72.57;100596.56;5072086;28;20035;-73
2022/08/16 08:17:21;;;;;;;32.10;15.45;;;;;;;21.05;71.95;100595.78;5070993;28;20029;-73
2022/08/16 08:19:47;;;;;;;26.58;16.08;;;;;;;21.13;71.25;100601.19;5072153;28;20082;-73
2022/08/16 08:22:13;;;;;;;26.38;16.13;;;;;;;21.15;70.99;100596.38;5072448;28;20531;-73
2022/08/16 08:24:38;;;;;;;25.70;14.68;;;;;;;21.21;71.10;100592.88;5074489;28;20024;-73
2022/08/16 08:27:07;;;;;;;22.83;12.63;;;;;;;21.25;69.57;100591.47;5074405;28;20418;-73
2022/08/16 08:29:34;;;;;;;24.48;14.88;;;;;;;21.29;68.79;100587.31;5075495;28;20055;-73
2022/08/16 08:31:59;;;;;;;27.13;15.13;;;;;;;21.37;68.67;100597.28;5075191;28;20113;-73
2022/08/16 08:34:26;;;;;;;23.42;14.25;;;;;;;21.41;68.11;100592.31;5075629;28;20392;-73
2022/08/16 08:36:52;;;;;;;23.48;13.65;;;;;;;21.49;67.98;100597.66;5074079;28;20032;-73
2022/08/16 08:39:18;;;;;;;24.77;13.68;;;;;;;21.57;68.73;100588.56;5074279;28;20503;-73
2022/08/16 08:41:44;;;;;;;24.83;14.20;;;;;;;21.62;67.84;100597.00;5073862;28;20032;-73
2022/08/16 08:44:10;;;;;;;22.08;13.07;;;;;;;21.70;68.20;100587.84;5074031;28;20027;-73
2022/08/16 08:46:36;;;;;;;25.00;13.43;;;;;;;21.77;66.30;100596.97;5075066;28;20384;-73
2022/08/16 08:49:02;;;;;;;24.25;12.98;;;;;;;21.83;66.92;100596.19;5073758;28;20028;-73
2022/08/16 08:51:27;;;;;;;23.63;13.50;;;;;;;21.88;66.42;100593.75;5073788;28;20602;-73
2022/08/16 08:53:53;;;;;;;24.25;13.50;;;;;;;21.94;66.02;100595.69;5074001;28;20499;-73
2022/08/16 08:56:18;;;;;;;22.10;12.93;;;;;;;22.04;66.77;100589.09;5074995;28;20115;-73
2022/08/16 08:58:44;;;;;;;22.65;12.70;;;;;;;22.10;66.16;100594.63;5075061;28;20572;-73
2022/08/16 09:01:09;;;;;;;22.83;12.27;;;;;;;22.15;66.29;100596.75;5074528;28;20033;-73
2022/08/16 09:03:36;;;;;;;25.60;11.77;;;;;;;22.21;65.78;100606.91;5073495;28;20031;-73
2022/08/16 09:06:03;;;;;;;23.52;11.65;;;;;;;22.23;65.78;100602.13;5074771;28;20059;-73
2022/08/16 09:08:30;;;;;;;22.33;11.48;;;;;;;22.26;64.08;100603.63;5074755;28;20496;-74
2022/08/16 09:10:57;;;;;;;22.10;11.85;;;;;;;22.36;66.26;100606.03;5073327;28;20017;-73
2022/08/16 09:13:23;;;;;;;22.00;11.30;;;;;;;;;;5073268;28;20086;-73
2022/08/16 09:15:49;;;;;;;26.80;11.02;;;;;;;22.46;62.33;100620.25;5074345;28;20017;-73
2022/08/16 09:18:16;;;;;;;24.33;10.52;;;;;;;22.49;62.63;100611.63;5074571;28;20052;-73
2022/08/16 09:20:42;;;;;;;26.95;12.05;;;;;;;22.54;61.22;100616.56;5073043;28;20025;-73
2022/08/16 09:23:07;;;;;;;17.88;10.02;;;;;;;22.57;62.06;100616.16;5072990;28;20522;-73
2022/08/16 09:25:33;;;;;;;19.13;10.07;;;;;;;22.63;59.52;100620.84;5072975;28;20024;-73
2022/08/16 09:27:59;;;;;;;21.05;10.05;;;;;;;22.71;60.16;100620.69;5074164;28;20021;-73
2022/08/16 09:30:25;;;;;;;22.52;10.88;;;;;;;22.77;60.63;100614.41;5073945;28;20024;-73
2022/08/16 09:32:53;;;;;;;19.88;10.02;;;;;;;22.76;59.13;100620.94;5072728;28;20048;-73
2022/08/16 09:35:19;;;;;;;19.83;9.00;;;;;;;22.86;59.68;100615.13;5072939;28;20040;-73
2022/08/16 09:37:45;;;;;;;20.45;10.95;;;;;;;22.89;58.91;100625.69;5072877;28;20464;-73
2022/08/16 09:40:11;;;;;;;19.83;10.18;;;;;;;22.99;58.31;100623.44;5072707;28;20111;-73
2022/08/16 09:42:36;;;;;;;19.38;9.55;;;;;;;23.03;56.91;100616.50;5072797;28;20052;-73
2022/08/16 09:45:03;;;;;;;21.27;9.10;;;;;;;23.08;58.94;100615.91;5073860;28;20059;-73
2022/08/16 09:47:28;;;;;;;19.90;9.38;;;;;;;23.17;58.58;100627.59;5073984;28;20028;-73
2022/08/16 09:49:53;;;;;;;18.55;8.93;;;;;;;23.23;57.05;100615.81;5072665;28;20012;-73
2022/08/16 09:52:19;;;;;;;19.70;8.52;;;;;;;23.30;57.82;100616.69;5072445;28;20032;-73
2022/08/16 09:54:44;;;;;;;18.35;8.85;;;;;;;23.36;57.01;100613.13;5072182;28;20476;-73
2022/08/16 09:57:09;;;;;;;18.42;8.38;;;;;;;23.48;56.73;100612.56;5073652;28;20024;-73
2022/08/16 09:59:35;;;;;;;17.60;8.82;;;;;;;23.50;55.65;100615.94;5072129;28;20396;-73
2022/08/16 10:02:00;;;;;;;18.08;7.80;;;;;;;23.54;55.26;100618.09;5073359;28;20103;-73
2022/08/16 10:04:26;;;;;;;19.98;8.32;;;;;;;23.60;52.46;100621.06;5072151;28;20020;-73
2022/08/16 10:06:54;;;;;;;17.27;7.53;;;;;;;23.64;53.35;100611.38;5073469;28;20533;-73
2022/08/16 10:09:19;;;;;;;19.15;8.48;;;;;;;23.63;53.61;100616.03;5072125;28;20388;-74
2022/08/16 10:14:29;;;;;;;22.10;7.68;;;;;;;23.70;54.31;100616.88;5073515;28;20051;-74
2022/08/16 10:16:57;;;;;;;15.70;7.38;;;;;;;23.72;53.34;100612.06;5073287;28;20028;-74
2022/08/16 10:19:23;;;;;;;19.17;7.53;;;;;;;23.80;53.23;100616.50;5073113;28;20021;-74
2022/08/16 10:21:49;;;;;;;20.15;7.70;;;;;;;23.86;54.01;100625.84;5073004;28;20035;-74
2022/08/16 10:24:14;;;;;;;16.90;7.68;;;;;;;23.92;52.31;100619.53;5071718;28;20032;-74
2022/08/16 10:26:40;;;;;;;15.63;6.75;;;;;;;23.95;55.82;100621.03;5072802;28;20099;-73
2022/08/16 10:29:06;;;;;;;17.85;8.13;;;;;;;24.07;54.01;100616.59;5071566;28;20066;-73
2022/08/16 10:31:32;;;;;;;21.63;7.47;;;;;;;24.04;54.29;100617.91;5071200;28;20492;-73
2022/08/16 10:33:59;;;;;;;16.52;7.10;;;;;;;24.10;53.51;100620.84;5072717;28;20029;-73
2022/08/16 10:36:24;;;;;;;16.67;7.25;;;;;;;24.11;52.76;100622.53;5072803;28;20024;-73
2022/08/16 10:38:50;;;;;;;18.60;8.15;;;;;;;24.21;52.25;100620.25;5071274;28;20880;-73
2022/08/16 10:41:15;;;;;;;19.30;7.70;;;;;;;24.22;54.00;100620.03;5072485;28;20048;-73
2022/08/16 10:43:41;;;;;;;19.50;7.80;;;;;;;24.31;52.08;100628.94;5072567;28;20032;-73
2022/08/16 10:46:13;;;;;;;15.70;6.88;;;;;;;24.41;50.86;100637.59;5072164;28;20366;-73
2022/08/16 10:48:40;;;;;;;23.30;8.23;;;;;;;24.51;50.61;100641.81;5071129;28;20415;-73
2022/08/16 10:51:06;;;;;;;17.90;7.53;;;;;;;24.60;51.15;100619.47;5072402;28;20365;-73
2022/08/16 10:53:33;;;;;;;18.20;7.63;;;;;;;24.66;51.92;100631.53;5071172;28;20076;-73
2022/08/16 10:55:59;;;;;;;20.85;9.02;;;;;;;24.67;50.15;100629.63;5071110;28;20044;-73
2022/08/16 10:58:25;;;;;;;18.40;8.35;;;;;;;24.70;49.72;100641.03;5072399;28;20040;-73
2022/08/16 11:00:52;;;;;;;21.00;8.25;;;;;;;24.75;50.96;100641.25;5072165;28;20033;-73
2022/08/16 11:03:18;;;;;;;20.88;7.93;;;;;;;24.85;50.31;100634.47;5072369;28;20025;-73
2022/08/16 11:05:44;;;;;;;17.15;7.40;;;;;;;24.84;49.37;100638.28;5071112;28;20035;-73
2022/08/16 11:08:12;;;;;;;19.98;7.70;;;;;;;24.91;50.30;100645.47;5072188;28;20392;-73
2022/08/16 11:10:42;;;;;;;16.55;8.00;;;;;;;24.92;48.34;100647.16;5072157;28;20103;-74